TAF and METAR

METAR for Carlos Ibanez Del Campo International Airport

SCCI 161200Z 22012KT 9999 FEW043 04/01 Q0990 NOSIG
Report created 16. aug 14:00
wind 12 knots from SW (220°) visibility > 10km some clouds (~25% cover) at 4300 feet Temperature 4° with dewpoint at 1° (Humidity 80.78%) Pressure 990 hPa no significant weather change expected the next couple of hours

TAF for Carlos Ibanez Del Campo International Airport

TAF SCCI 161045Z 1612/1712 25020G30KT 9999 SCT040 TN00/1712Z TX07/1618Z TEMPO 1612/1618 8000 -SHRA FEW015 BKN030 BECMG 1618/1620 30015KT BECMG 1700/1702 35015G27KT 9000 SCT030 BECMG 1709/1711 27023G35KT
Report created 16. aug 12:45

between 16. aug 14:00 - 17. aug 14:00

wind 20 knots from WSW (250°) with gusts up to 30 knots visibility > 10km scattered clouds (~50% cover) at 4000 feet Min temperature 00° expected tomorrow at around 14 o'clock